KAUW/AUW METAR and TAF weather

Enter ICAO airport designator
Station Type Date Time Source
KAUW METAR 2018/01/23 01:18 UTC NOAA

KAUW 230118Z AUTO 04008G16KT 1 1/4SM -SN BR BKN017 OVC024 M02/M03 A2956 RMK AO2 P0000 T10171028


Station Type Date Time Source
KAUW Decoded METAR 2018/01/23 01:18 UTC NOAA

WAUSAU DOWNTOWN AIRPORT, WI, United States (KAUW) 44-56N 089-37W 362M
Jan 22, 2018 - 08:18 PM EST / 2018.01.23 0118 UTC
Wind: from the NE (040 degrees) at 9 MPH (8 KT) gusting to 18 MPH (16 KT):0
Visibility: 1 1/4 mile(s):0
Sky conditions: overcast
Weather: light snow; mist
Precipitation last hour: A trace
Temperature: 28.9 F (-1.7 C)
Windchill: 21 F (-6 C):1
Dew Point: 27.0 F (-2.8 C)
Relative Humidity: 92%
Pressure (altimeter): 29.56 in. Hg (1001 hPa)
ob: KAUW 230118Z AUTO 04008G16KT 1 1/4SM -SN BR BKN017 OVC024 M02/M03 A2956 RMK AO2 P0000 T10171028
cycle: 1

Station Type Date Time Source
KAUW TAF 2018/01/22 22:36 UTC NOAA

TAF
AMD KAUW 222134Z 2222/2318 05010G18KT 2SM -SN OVC012 WS020/07040KT
TEMPO 2222/2302 1SM -SNPL OVC006
FM230200 02012G20KT 4SM -FZDZSN OVC011 WS020/05040KT
FM230700 02012G20KT 4SM -SN OVC011 WS020/05040KT
FM231100 35011G23KT P6SM BKN020 WS020/01040KT


Example: see airport list